Flight Track Log - Related Links

Times and Time Zones

All times are in EDT time to prevent confusion due to time zone crossing. See the UAL139 flight status page for this flight to view local times or setup timezone preferences in your user account.

Time Position Orientation Groundspeed Altitude Reporting Facility
EDT Latitude Longitude Course Direction KTS MPH feet Rate Location/Type
03:05PM 39.8751 -104.6963 180° South 172 198 5,200  Level FlightAware ADS-B (KEIK)
03:06PM 39.8517 -104.6970 205° Southwest 202 232 6,100 1,467 Climbing FlightAware ADS-B (KEIK)
03:06PM 39.8370 -104.7103 240° Southwest 203 234 6,300 1,091 Climbing FlightAware ADS-B (KEIK)
03:06PM 39.8338 -104.7229 264° West 210 242 6,500 909 Climbing FlightAware ADS-B (KEIK)
03:07PM 39.8405 -104.7478 305° West 226 260 6,800 571 Climbing FlightAware ADS-B (KEIK)
03:07PM 39.8546 -104.7717 309° West 254 292 6,900 1,000 Climbing FlightAware ADS-B (KEIK)
03:08PM 39.8720 -104.7992 309° West 282 325 7,700 1,636 Climbing FlightAware ADS-B (KEIK)
03:08PM 39.8975 -104.8398 309° West 291 335 8,400 2,100 Climbing FlightAware ADS-B (KEIK)
03:08PM 39.9052 -104.8520 310° West 295 339 9,100 2,032 Climbing FlightAware ADS-B (KEIK)
03:09PM 39.9521 -104.9239 311° West 298 343 10,500 2,095 Climbing FlightAware ADS-B (KEIK)
03:09PM 39.9772 -104.9468 340° North 306 352 11,300 2,432 Climbing FlightAware ADS-B (KEIK)
03:10PM 40.0011 -104.9511 359° North 310 357 12,000 2,323 Climbing FlightAware ADS-B (KEIK)
03:10PM 40.0213 -104.9510 North 313 360 12,500 2,400 Climbing FlightAware ADS-B (KEIK)
03:10PM 40.0650 -104.9503 North 315 362 13,800 2,190 Climbing FlightAware ADS-B (KEIK)
03:11PM 40.1131 -104.9500 North 327 376 14,800 2,057 Climbing FlightAware ADS-B (KEIK)
03:12PM 40.1718 -104.9496 North 335 386 16,200 2,137 Climbing FlightAware ADS-B (KEIK)
03:12PM 40.2279 -104.9492 North 342 394 17,400 2,000 Climbing FlightAware ADS-B (KEIK)
03:13PM 40.2768 -104.9485 North 349 402 18,400 1,714 Climbing FlightAware ADS-B (KEIK)
03:13PM 40.2882 -104.9486 357° North 357 411 18,600 960 Climbing FlightAware ADS-B (KEIK)
03:14PM 40.3609 -104.9620 349° North 387 445 19,200 907 Climbing FlightAware ADS-B (KEIK)
03:14PM 40.4429 -104.9832 349° North 421 484 19,900 1,098 Climbing FlightAware ADS-B
03:15PM 40.5114 -105.0010 349° North 432 497 20,700 1,558 Climbing FlightAware ADS-B (KEIK)
03:16PM 40.5916 -105.0219 349° North 440 506 21,900 1,680 Climbing FlightAware ADS-B (KEIK)
03:16PM 40.6622 -105.0407 348° North 444 511 22,800 1,800 Climbing FlightAware ADS-B
03:17PM 40.7388 -105.0626 342° North 443 510 24,000 1,862 Climbing FlightAware ADS-B
03:17PM 40.7787 -105.0871 329° Northwest 439 505 24,600 1,556 Climbing FlightAware ADS-B (KEIK)
03:18PM 40.8275 -105.1387 319° Northwest 438 504 25,400 1,437 Climbing FlightAware ADS-B
03:18PM 40.8867 -105.2054 320° Northwest 445 512 26,300 1,478 Climbing FlightAware ADS-B (KEIK)
03:19PM 40.9377 -105.2633 319° Northwest 448 516 27,100 1,475 Climbing FlightAware ADS-B (KEIK)
03:19PM 40.9696 -105.2994 319° Northwest 453 521 27,800 1,200 Climbing FlightAware ADS-B (KEIK)
03:20PM 41.0327 -105.3713 319° Northwest 460 529 28,500 1,167 Climbing FlightAware ADS-B (KEIK)
03:21PM 41.1003 -105.4485 319° Northwest 466 536 29,200 1,238 Climbing FlightAware ADS-B (KEIK)
03:21PM 41.1512 -105.5065 319° Northwest 471 542 29,800 1,239 Climbing FlightAware ADS-B (KEIK)
03:22PM 41.2442 -105.6131 319° Northwest 473 544 31,100 1,085 Climbing FlightAware ADS-B (KEIK)
03:23PM 41.3059 -105.6843 319° Northwest 479 551 31,500 1,048 Climbing FlightAware ADS-B (KEIK)
03:23PM 41.3568 -105.7427 319° Northwest 479 551 32,200 1,071 Climbing FlightAware ADS-B (KEIK)
03:24PM 41.4471 -105.8477 319° Northwest 483 556 33,000 571 Climbing FlightAware ADS-B (KEIK)
03:25PM 41.4969 -105.9056 319° Northwest 479 551 33,000  Level FlightAware ADS-B (KEIK)
03:25PM 41.5385 -105.9544 319° Northwest 480 552 33,000  Level FlightAware ADS-B (KEIK)
03:26PM 41.6219 -106.0519 319° Northwest 480 552 33,000  Level FlightAware ADS-B (KEIK)
03:26PM 41.6845 -106.1252 319° Northwest 484 557 33,000 592 Level FlightAware ADS-B (KEIK)
03:27PM 41.7429 -106.1939 319° Northwest 482 555 33,700 1,791 Climbing FlightAware ADS-B (KEIK)
03:28PM 41.7924 -106.2521 319° Northwest 464 534 35,000 1,917 Climbing FlightAware ADS-B (KEIK)
03:28PM 41.8600 -106.3318 318° Northwest 453 521 36,000 1,333 Climbing FlightAware ADS-B (KEIK)
03:29PM 41.9093 -106.3906 318° Northwest 451 519 36,600 1,077 Climbing FlightAware ADS-B (KEIK)
03:29PM 41.9769 -106.4711 318° Northwest 445 512 37,400 1,063 Climbing FlightAware ADS-B (KEIK)
03:30PM 42.0257 -106.5388 305° West 431 496 38,000 514 Climbing FlightAware ADS-B (KEIK)
03:31PM 42.0630 -106.6191 301° West 430 495 38,000  Level FlightAware ADS-B (KEIK)
03:31PM 42.0959 -106.6930 301° West 431 496 38,000  Level FlightAware ADS-B (KEIK)
03:32PM 42.1692 -106.8564 301° West 431 496 38,000  Level Salt Lake Center
03:33PM 42.2364 -106.9814 306° West 432 497 38,000  Level Salt Lake Center
03:34PM 42.3456 -107.0619 331° Northwest 469 540 38,000  Level Salt Lake Center
03:35PM 42.4758 -107.1472 334° Northwest 468 539 38,000  Level Salt Lake Center
03:36PM 42.5872 -107.2233 333° Northwest 471 542 38,000  Level Salt Lake Center
03:38PM 42.7181 -107.3106 334° Northwest 472 543 38,000  Level Salt Lake Center
03:39PM 42.8303 -107.3858 334° Northwest 469 540 38,000  Level Salt Lake Center
03:40PM 42.9461 -107.4644 334° Northwest 468 539 38,000  Level Salt Lake Center
03:41PM 43.0844 -107.5597 333° Northwest 465 535 38,000  Level Salt Lake Center
03:42PM 43.2017 -107.6403 333° Northwest 469 540 38,000  Level Salt Lake Center
03:43PM 43.3178 -107.7189 334° Northwest 468 539 38,000  Level Salt Lake Center
03:44PM 43.4336 -107.8003 333° Northwest 467 537 38,000  Level Salt Lake Center
03:45PM 43.5494 -107.8803 333° Northwest 466 536 38,000  Level Salt Lake Center
03:46PM 43.6667 -107.9614 333° Northwest 468 539 38,000  Level Salt Lake Center
03:47PM 43.8069 -108.0597 333° Northwest 470 541 38,000  Level Salt Lake Center
03:48PM 43.9239 -108.1411 333° Northwest 469 540 38,000  Level Salt Lake Center
03:49PM 44.0408 -108.2239 333° Northwest 470 541 38,000  Level Salt Lake Center
03:50PM 44.1578 -108.3056 333° Northwest 470 541 38,000  Level Salt Lake Center
03:51PM 44.2761 -108.3903 333° Northwest 473 544 38,000  Level Salt Lake Center
03:52PM 44.3936 -108.4747 333° Northwest 473 544 38,000  Level Salt Lake Center
03:53PM 44.5106 -108.5583 333° Northwest 472 543 38,000  Level Salt Lake Center
03:54PM 44.6517 -108.6594 333° Northwest 472 543 38,000  Level Salt Lake Center
03:55PM 44.7694 -108.7444 333° Northwest 472 543 38,000  Level Salt Lake Center
04:01PM 45.4391 -109.2363 333° Northwest 478 550 38,000  Level FlightAware ADS-B (KBIL)
04:02PM 45.5472 -109.3170 333° Northwest 476 548 38,000  Level FlightAware ADS-B (KBIL)
04:02PM 45.6037 -109.3596 332° Northwest 479 551 38,000  Level FlightAware ADS-B (KBIL)
04:03PM 45.6599 -109.4021 333° Northwest 483 556 38,000  Level FlightAware ADS-B (KBIL)
04:03PM 45.7202 -109.4474 333° Northwest 480 552 38,000  Level FlightAware ADS-B (KBIL)
04:04PM 45.7808 -109.4932 333° Northwest 478 550 38,000  Level FlightAware ADS-B (KBIL)
04:04PM 45.8392 -109.5374 332° Northwest 481 554 38,000  Level FlightAware ADS-B (KBIL)
04:05PM 45.8970 -109.5815 333° Northwest 484 557 38,000  Level FlightAware ADS-B (KBIL)
04:05PM 45.9564 -109.6265 333° Northwest 484 557 38,000  Level FlightAware ADS-B (KBIL)
04:06PM 46.0134 -109.6702 333° Northwest 488 562 38,000  Level FlightAware ADS-B (KBIL)
04:06PM 46.0754 -109.7177 333° Northwest 487 560 38,000  Level FlightAware ADS-B (KBIL)
04:07PM 46.1381 -109.7655 332° Northwest 485 558 38,000  Level FlightAware ADS-B (KBIL)
04:07PM 46.1966 -109.8108 332° Northwest 485 558 38,000  Level FlightAware ADS-B (KBIL)
04:08PM 46.2543 -109.8552 333° Northwest 485 558 38,000  Level FlightAware ADS-B (KBIL)
04:08PM 46.3144 -109.9015 332° Northwest 484 557 38,000  Level FlightAware ADS-B (KBIL)
04:09PM 46.3684 -109.9434 332° Northwest 483 556 38,000  Level FlightAware ADS-B (KBIL)
04:09PM 46.4287 -109.9904 332° Northwest 485 558 38,000  Level FlightAware ADS-B (KBIL)
04:10PM 46.4907 -110.0389 332° Northwest 486 559 38,000  Level FlightAware ADS-B (KBIL)
04:10PM 46.5485 -110.0837 332° Northwest 489 563 38,000  Level FlightAware ADS-B (KBIL)
04:11PM 46.6069 -110.1294 332° Northwest 489 563 38,000  Level FlightAware ADS-B (KBIL)
04:11PM 46.6671 -110.1766 332° Northwest 495 570 38,000  Level FlightAware ADS-B (KBIL)
04:12PM 46.7341 -110.2293 332° Northwest 500 575 38,000  Level FlightAware ADS-B (KBIL)
04:12PM 46.7915 -110.2747 332° Northwest 501 577 38,000  Level FlightAware ADS-B (KBIL)
04:13PM 46.8478 -110.3192 332° Northwest 502 578 38,000  Level FlightAware ADS-B (KBIL)
04:13PM 46.9092 -110.3679 332° Northwest 500 575 38,000  Level FlightAware ADS-B (KBIL)
04:14PM 46.9728 -110.4184 332° Northwest 502 578 38,000  Level FlightAware ADS-B (KBIL)
04:14PM 47.0328 -110.4662 332° Northwest 498 573 38,000  Level FlightAware ADS-B (KBIL)
04:15PM 47.0997 -110.5198 332° Northwest 496 571 38,000  Level FlightAware ADS-B (KBIL)
04:15PM 47.1578 -110.5662 332° Northwest 498 573 38,000  Level FlightAware ADS-B (KBIL)
04:15PM 47.1748 -110.5798 332° Northwest 498 573 38,000  Level FlightAware ADS-B (KBIL)
04:16PM 47.2638 -110.6513 332° Northwest 496 571 38,000 -65 Level FlightAware ADS-B (KBIL)
04:17PM 47.3381 -110.7119 332° Northwest 498 573 37,900 -55 Descending Salt Lake Center
04:18PM 47.4817 -110.8261 332° Northwest 496 571 37,900  Level Salt Lake Center
04:19PM 47.6000 -110.9228 331° Northwest 495 570 37,900  Level Salt Lake Center
04:20PM 47.7178 -111.0222 330° Northwest 495 570 37,900 48 Level Salt Lake Center
04:21PM 47.8369 -111.1211 331° Northwest 498 573 38,000 32 Climbing Salt Lake Center
04:23PM 48.1053 -111.3442 331° Northwest 505 581 38,000 -32 Level Salt Lake Center
04:24PM 48.2278 -111.4467 331° Northwest 505 581 37,900  Descending Salt Lake Center
04:25PM 48.3497 -111.5489 331° Northwest 506 582 38,000 48 Climbing Salt Lake Center
04:26PM 48.4700 -111.6514 331° Northwest 501 577 38,000 -48 Level Salt Lake Center
04:27PM 48.5906 -111.7544 331° Northwest 499 574 37,900  Descending Salt Lake Center
04:28PM 48.7375 -111.8794 331° Northwest 504 580 38,000  Climbing Salt Lake Center
04:29PM 48.8597 -111.9861 330° Northwest 505 581 37,900  Descending Salt Lake Center
04:30PM 48.9667 -112.1167 321° Northwest 510 587 38,000 48 Climbing Edmonton Center
04:31PM 49.0833 -112.2167 331° Northwest 510 587 38,000  Level Edmonton Center
04:32PM 49.2167 -112.3333 330° Northwest 510 587 38,000  Level Edmonton Center
04:33PM 49.3500 -112.4333 334° Northwest 510 587 38,000  Level Edmonton Center
04:34PM 49.4500 -112.5667 319° Northwest 510 587 38,000  Level Edmonton Center
04:35PM 49.6000 -112.6667 337° Northwest 520 598 38,000  Level Edmonton Center
04:36PM 49.7167 -112.7833 327° Northwest 520 598 38,000  Level Edmonton Center
04:37PM 49.8333 -112.8667 335° Northwest 520 598 38,000  Level Edmonton Center
04:38PM 49.9833 -113.0000 330° Northwest 520 598 38,000  Level Edmonton Center
04:39PM 50.1000 -113.1000 331° Northwest 510 587 38,000  Level Edmonton Center
04:40PM 50.2333 -113.2000 334° Northwest 520 598 38,000  Level Edmonton Center
04:41PM 50.3667 -113.3000 334° Northwest 520 598 38,000  Level Edmonton Center
04:42PM 50.4667 -113.4000 328° Northwest 520 598 38,000  Level Edmonton Center
04:43PM 50.6167 -113.5167 334° Northwest 520 598 38,000  Level Edmonton Center
04:44PM 50.7500 -113.6167 335° Northwest 520 598 38,000  Level Edmonton Center
04:45PM 50.8667 -113.7167 332° Northwest 510 587 38,000  Level Edmonton Center
04:46PM 51.0000 -113.8333 331° Northwest 510 587 38,000  Level Edmonton Center
04:47PM 51.1333 -113.9667 328° Northwest 520 598 38,000  Level Edmonton Center
04:48PM 51.2167 -114.0833 319° Northwest 510 587 38,000  Level Edmonton Center
04:49PM 51.3167 -114.2500 314° West 500 575 38,000  Level Edmonton Center
04:50PM 51.4333 -114.3833 325° Northwest 510 587 38,000  Level Edmonton Center
04:51PM 51.5500 -114.5167 325° Northwest 510 587 38,000  Level Edmonton Center
04:52PM 51.6833 -114.6500 328° Northwest 510 587 38,000  Level Edmonton Center
04:53PM 51.8000 -114.7667 328° Northwest 510 587 38,000  Level Edmonton Center
04:54PM 51.9333 -114.9000 328° Northwest 510 587 38,000  Level Edmonton Center
04:55PM 52.0500 -115.0167 328° Northwest 510 587 38,000  Level Edmonton Center
04:56PM 52.1667 -115.1500 325° Northwest 510 587 38,000  Level Edmonton Center
04:57PM 52.2833 -115.2667 329° Northwest 510 587 38,000  Level Edmonton Center
04:58PM 52.3833 -115.4333 315° West 510 587 38,000  Level Edmonton Center
04:59PM 52.4833 -115.6167 312° West 510 587 38,000  Level Edmonton Center
05:00PM 52.5833 -115.7833 315° West 500 575 38,000  Level Edmonton Center
05:01PM 52.6833 -115.9833 310° West 510 587 38,000  Level Edmonton Center
05:02PM 52.7667 -116.1500 310° West 510 587 38,000  Level Edmonton Center
05:03PM 52.8667 -116.3167 315° West 510 587 38,000  Level Edmonton Center
05:04PM 52.9667 -116.4833 315° West 510 587 38,000  Level Edmonton Center
05:05PM 53.0500 -116.6833 305° West 510 587 38,000  Level Edmonton Center
05:06PM 53.1500 -116.8500 315° West 510 587 38,000  Level Edmonton Center
05:07PM 53.2500 -117.0333 312° West 510 587 38,000  Level Edmonton Center
05:08PM 53.3500 -117.2000 315° West 510 587 38,000  Level Edmonton Center
05:09PM 53.4333 -117.4000 305° West 510 587 38,000  Level Edmonton Center
05:10PM 53.5167 -117.5667 310° West 520 598 38,000  Level Edmonton Center
05:11PM 53.6167 -117.7667 310° West 520 598 38,000  Level Edmonton Center
05:12PM 53.7167 -117.9500 313° West 510 587 38,000  Level Edmonton Center
05:14PM 53.9000 -118.3000 312° West 500 575 38,000  Level Edmonton Center
05:15PM 54.0000 -118.4833 313° West 500 575 38,000  Level Edmonton Center
05:16PM 54.0833 -118.6500 310° West 510 587 38,000  Level Edmonton Center
05:17PM 54.1833 -118.8333 313° West 510 587 38,000  Level Edmonton Center
05:18PM 54.2667 -119.0333 306° West 510 587 38,000  Level Edmonton Center
05:19PM 54.3667 -119.2167 313° West 510 587 38,000  Level Edmonton Center
05:20PM 54.4500 -119.4333 304° West 510 587 38,000  Level Edmonton Center
05:21PM 54.5333 -119.6167 308° West 510 587 38,000  Level Edmonton Center
05:22PM 54.6333 -119.8000 313° West 510 587 38,000  Level Edmonton Center
05:23PM 54.7333 -119.9833 313° West 510 587 38,000  Level Edmonton Center
05:24PM 54.8167 -120.1667 308° West 510 587 38,000  Level Edmonton Center
05:25PM 54.9000 -120.3833 304° West 510 587 38,000  Level Edmonton Center
05:26PM 55.0000 -120.5667 314° West 500 575 38,000  Level Edmonton Center
05:27PM 55.0833 -120.7500 309° West 500 575 38,000  Level Edmonton Center
05:28PM 55.1667 -120.9500 306° West 500 575 38,000  Level Edmonton Center
05:29PM 55.2500 -121.1333 309° West 500 575 38,000  Level Edmonton Center
05:31PM 55.4167 -121.5500 296° West 500 575 38,000  Level Edmonton Center
05:32PM 55.5167 -121.7333 314° West 500 575 38,000  Level Edmonton Center
05:33PM 55.6000 -121.9333 306° West 500 575 38,000  Level Edmonton Center
05:34PM 55.6833 -122.1167 309° West 500 575 38,000  Level Edmonton Center
05:35PM 55.7833 -122.3167 312° West 500 575 38,000  Level Edmonton Center
05:36PM 55.8667 -122.5500 303° West 500 575 38,000  Level Edmonton Center
05:37PM 55.9333 -122.7333 303° West 500 575 38,000  Level Edmonton Center
05:38PM 56.0333 -122.9333 312° West 500 575 38,000  Level Edmonton Center
05:39PM 56.1000 -123.1333 301° West 490 564 38,000  Level Edmonton Center
05:40PM 56.2000 -123.3333 312° West 500 575 38,000  Level Edmonton Center
05:41PM 56.2667 -123.5333 301° West 500 575 38,000  Level Edmonton Center
05:42PM 56.3500 -123.7333 307° West 500 575 38,000  Level Edmonton Center
05:43PM 56.4333 -123.9667 303° West 510 587 38,000  Level Edmonton Center
05:44PM 56.5167 -124.1667 307° West 510 587 38,000  Level Edmonton Center
05:45PM 56.6167 -124.3667 312° West 510 587 38,000  Level Edmonton Center
05:46PM 56.6833 -124.5667 301° West 500 575 38,000  Level Edmonton Center
05:47PM 56.7667 -124.7833 305° West 490 564 38,000  Level Edmonton Center
05:48PM 56.8500 -124.9833 307° West 500 575 38,000  Level Edmonton Center
05:49PM 56.9167 -125.2167 298° West 490 564 38,000  Level Edmonton Center
05:50PM 56.9667 -125.4500 292° West 490 564 38,000  Level Edmonton Center
06:20PM 58.4833 -132.5333 288° West 500 575 38,000  Level Anchorage Center
06:21PM 58.4115 -132.0500 289° West  Level FlightAware Approximate
06:21PM 58.5333 -132.7833 291° West 500 575 38,000  Level Anchorage Center
06:22PM 58.4540 -132.2859 289° West  Level FlightAware Approximate
06:22PM 58.5833 -133.0333 291° West 510 587 38,000  Level Anchorage Center
06:23PM 58.4960 -132.5223 289° West  Level FlightAware Approximate
06:23PM 58.6167 -133.2833 284° West 490 564 38,000  Level Anchorage Center
06:24PM 58.5376 -132.7593 289° West  Level FlightAware Approximate
06:24PM 58.6667 -133.5333 291° West 500 575 38,000  Level Anchorage Center
06:25PM 58.5787 -132.9968 288° West  Level FlightAware Approximate
06:25PM 58.7000 -133.8000 284° West 510 587 38,000  Level Anchorage Center
06:26PM 58.6194 -133.2349 288° West  Level FlightAware Approximate
06:26PM 58.7500 -134.0500 291° West 500 575 38,000  Level Anchorage Center
06:27PM 58.7833 -134.3000 285° West 500 575 38,000  Level Anchorage Center
06:28PM 58.8333 -134.5500 291° West 490 564 38,000  Level Anchorage Center
06:29PM 58.8667 -134.8167 284° West 510 587 38,000  Level Anchorage Center
06:30PM 58.9000 -135.0667 285° West 500 575 38,000  Level Anchorage Center
06:31PM 58.9500 -135.3333 290° West 500 575 38,000  Level Anchorage Center
06:32PM 58.9833 -135.6000 284° West 500 575 38,000  Level Anchorage Center
06:33PM 59.0167 -135.8500 285° West 510 587 38,000  Level Anchorage Center
06:34PM 59.0500 -136.1167 284° West 500 575 38,000  Level Anchorage Center
06:35PM 59.1000 -136.3667 291° West 500 575 38,000  Level Anchorage Center
06:36PM 59.1333 -136.6333 284° West 510 587 38,000  Level Anchorage Center
06:37PM 59.1667 -136.9000 284° West 500 575 38,000  Level Anchorage Center
06:38PM 59.2000 -137.1667 284° West 500 575 38,000  Level Anchorage Center
06:39PM 59.2333 -137.4167 285° West 490 564 38,000  Level Anchorage Center
06:40PM 59.2667 -137.6833 284° West 510 587 38,000  Level Anchorage Center
06:41PM 59.3000 -137.9500 284° West 500 575 38,000  Level Anchorage Center
06:42PM 59.3333 -138.2167 284° West 500 575 38,000  Level Anchorage Center
06:43PM 59.3667 -138.5000 283° West 500 575 38,000  Level Anchorage Center
06:44PM 59.4000 -138.7667 284° West 490 564 38,000  Level Anchorage Center
06:45PM 59.4333 -139.0167 285° West 490 564 38,000  Level Anchorage Center
06:46PM 59.4667 -139.3000 283° West 500 575 38,000  Level Anchorage Center
06:47PM 59.5000 -139.5667 284° West 510 587 38,000  Level Anchorage Center
06:48PM 59.5167 -139.8833 276° West 490 564 38,000  Level Anchorage Center
06:49PM 59.5500 -140.1667 283° West 500 575 38,000  Level Anchorage Center
06:50PM 59.5667 -140.4500 277° West 500 575 38,000  Level Anchorage Center
06:51PM 59.5833 -140.7167 277° West 500 575 38,000  Level Anchorage Center
06:52PM 59.6000 -140.9833 277° West 490 564 38,000  Level Anchorage Center
06:53PM 59.6167 -141.2500 277° West 490 564 38,000  Level Anchorage Center
06:54PM 59.6333 -141.5333 277° West 490 564 38,000  Level Anchorage Center
06:55PM 59.6500 -141.8000 277° West 500 575 38,000  Level Anchorage Center
06:56PM 59.6667 -142.0833 277° West 500 575 38,000  Level Anchorage Center
06:57PM 59.6833 -142.3500 277° West 490 564 38,000  Level Anchorage Center
06:58PM 59.7000 -142.6333 277° West 500 575 38,000  Level Anchorage Center
06:59PM 59.7167 -142.9000 277° West 500 575 38,000  Level Anchorage Center
07:00PM 59.7167 -143.1833 270° West 490 564 38,000  Level Anchorage Center
07:01PM 59.7333 -143.4500 277° West 500 575 38,000  Level Anchorage Center
07:02PM 59.7500 -143.7167 277° West 500 575 38,000  Level Anchorage Center
07:08PM 59.8180 -145.3488 274° West 498 573 38,000  Level FlightAware ADS-B
07:09PM 59.8206 -145.4308 274° West 500 575 38,000  Level FlightAware ADS-B
07:09PM 59.8258 -145.6008 273° West 501 577 38,000  Level FlightAware ADS-B
07:10PM 59.8324 -145.8281 273° West 500 575 38,000 80 Level FlightAware ADS-B
07:11PM 59.8363 -145.9704 273° West 499 574 38,100 500 Climbing FlightAware ADS-B
07:11PM 59.8399 -146.1070 273° West 497 572 38,500 730 Climbing FlightAware ADS-B
07:12PM 59.8450 -146.3057 273° West 496 571 39,000 711 Climbing FlightAware ADS-B
07:12PM 59.8480 -146.4343 273° West 494 568 39,400 730 Climbing FlightAware ADS-B
07:13PM 59.8527 -146.6383 272° West 493 567 39,900 480 Climbing FlightAware ADS-B
07:14PM 59.8558 -146.7847 272° West 493 567 40,000 78 Climbing FlightAware ADS-B
07:14PM 59.8598 -146.9832 272° West 491 565 40,000  Level FlightAware ADS-B
07:15PM 59.8620 -147.0965 272° West 490 564 40,000  Level FlightAware ADS-B
07:16PM 59.8659 -147.3192 272° West 490 564 40,000  Level FlightAware ADS-B
07:16PM 59.8688 -147.5019 272° West 488 562 40,000  Level FlightAware ADS-B
07:17PM 59.8711 -147.6610 272° West 487 560 40,000  Level FlightAware ADS-B
07:17PM 59.8722 -147.7377 272° West 486 559 40,000  Level FlightAware ADS-B
07:18PM 59.8746 -147.9199 271° West 488 562 40,000  Level FlightAware ADS-B
07:18PM 59.8762 -148.0644 271° West 490 564 40,000  Level FlightAware ADS-B
07:19PM 59.8782 -148.2613 271° West 490 564 40,000  Level FlightAware ADS-B
07:20PM 59.8796 -148.4011 271° West 488 562 40,000  Level FlightAware ADS-B
07:20PM 59.8809 -148.5796 271° West 488 562 40,000  Level FlightAware ADS-B
07:21PM 59.8819 -148.7323 271° West 486 559 40,000  Level FlightAware ADS-B
07:22PM 59.8828 -148.9129 269° West 485 558 40,000  Level FlightAware ADS-B
07:22PM 59.8743 -149.0709 259° West 490 564 40,000  Level FlightAware ADS-B
07:23PM 59.8669 -149.1351 256° West 491 565 40,000  Level FlightAware ADS-B
07:23PM 59.8420 -149.3372 256° West 490 564 40,000  Level FlightAware ADS-B
07:24PM 59.8183 -149.5272 256° West 490 564 40,000  Level FlightAware ADS-B
07:24PM 59.8016 -149.6593 256° West 490 564 40,000  Level FlightAware ADS-B
07:25PM 59.7870 -149.7739 256° West 488 562 40,000  Level FlightAware ADS-B
07:26PM 59.7637 -149.9554 256° West 488 562 40,000  Level FlightAware ADS-B
07:26PM 59.7450 -150.0997 256° West 490 564 40,000  Level FlightAware ADS-B
07:27PM 59.7218 -150.2760 255° West 488 562 40,000  Level FlightAware ADS-B
07:27PM 59.7006 -150.4352 255° West 488 562 40,000  Level FlightAware ADS-B
07:28PM 59.6766 -150.6134 255° West 489 563 40,000  Level FlightAware ADS-B
07:29PM 59.6621 -150.7209 255° West 488 562 40,000  Level FlightAware ADS-B
07:29PM 59.6399 -150.8829 255° West 487 560 40,000  Level FlightAware ADS-B
07:30PM 59.6192 -151.0331 255° West 485 558 40,000  Level FlightAware ADS-B
07:30PM 59.5961 -151.1988 255° West 485 558 40,000  Level FlightAware ADS-B
07:31PM 59.5682 -151.3967 254° West 485 558 40,000  Level FlightAware ADS-B
07:32PM 59.5498 -151.5257 254° West 485 558 40,000  Level FlightAware ADS-B
07:32PM 59.5246 -151.7007 254° West 488 562 40,000  Level FlightAware ADS-B
07:33PM 59.5046 -151.8386 254° West 488 562 40,000  Level FlightAware ADS-B
07:34PM 59.4776 -152.0221 254° West 488 562 40,000  Level FlightAware ADS-B
07:34PM 59.4574 -152.1587 254° West 487 560 40,000  Level FlightAware ADS-B
07:35PM 59.4284 -152.3525 254° West 488 562 40,000  Level FlightAware ADS-B
07:35PM 59.4092 -152.4802 254° West 486 559 40,000  Level FlightAware ADS-B
07:36PM 59.3816 -152.6609 253° West 486 559 40,000  Level FlightAware ADS-B
07:37PM 59.3608 -152.7961 253° West 487 560 40,000  Level FlightAware ADS-B
07:37PM 59.3332 -152.9737 253° West 487 560 40,000  Level FlightAware ADS-B
07:38PM 59.3023 -153.1706 253° West 489 563 40,000  Level FlightAware ADS-B
07:39PM 59.2884 -153.2583 253° West 489 563 40,000  Level FlightAware ADS-B
07:39PM 59.2524 -153.4844 253° West 488 562 40,000  Level FlightAware ADS-B
07:40PM 59.2316 -153.6132 253° West 486 559 40,000  Level FlightAware ADS-B
07:40PM 59.2121 -153.7333 252° West 486 559 40,000  Level FlightAware ADS-B
07:41PM 59.1908 -153.8631 252° West 485 558 40,000  Level FlightAware ADS-B
07:41PM 59.1711 -153.9830 252° West 483 556 40,000  Level FlightAware ADS-B
07:42PM 59.1400 -154.1699 252° West 485 558 40,000  Level FlightAware ADS-B
07:43PM 59.1088 -154.3553 252° West 485 558 40,000  Level FlightAware ADS-B
07:43PM 59.0891 -154.4718 252° West 485 558 40,000  Level FlightAware ADS-B
07:44PM 59.0658 -154.6086 252° West 485 558 40,000  Level FlightAware ADS-B
07:44PM 59.0444 -154.7330 252° West 486 559 40,000  Level FlightAware ADS-B
07:45PM 59.0230 -154.8566 251° West 485 558 40,000  Level FlightAware ADS-B
07:45PM 59.0023 -154.9759 251° West 487 560 40,000  Level FlightAware ADS-B
07:46PM 58.9799 -155.1033 251° West 486 559 40,000  Level FlightAware ADS-B
07:46PM 58.9590 -155.2213 251° West 485 558 40,000  Level FlightAware ADS-B
07:47PM 58.9286 -155.3926 251° West 484 557 40,000  Level FlightAware ADS-B
07:48PM 58.9038 -155.5311 251° West 484 557 40,000  Level FlightAware ADS-B
07:48PM 58.8815 -155.6538 251° West 484 557 40,000  Level FlightAware ADS-B
07:49PM 58.8594 -155.7760 251° West 484 557 40,000  Level FlightAware ADS-B
07:49PM 58.8275 -155.9504 250° West 484 557 40,000  Level FlightAware ADS-B
07:50PM 58.7922 -156.1407 250° West 483 556 40,000  Level FlightAware ADS-B
07:51PM 58.7363 -156.4396 250° West 484 557 40,000  Level FlightAware ADS-B
07:52PM 58.7000 -156.5500 250° West 480 552 40,000  Level Anchorage Center
07:53PM 58.6667 -156.7167 249° West 480 552 40,000  Level Anchorage Center
07:54PM 58.6333 -156.9500 255° West 480 552 40,000  Level Anchorage Center
07:55PM 58.5833 -157.2000 249° West 480 552 40,000  Level Anchorage Center
07:56PM 58.5333 -157.4333 248° West 480 552 40,000  Level Anchorage Center
07:57PM 58.4833 -157.6833 249° West 480 552 40,000  Level Anchorage Center
07:58PM 58.4333 -157.9167 248° West 480 552 40,000  Level Anchorage Center
07:59PM 58.3833 -158.1667 249° West 480 552 40,000  Level Anchorage Center
08:00PM 58.3333 -158.4000 248° West 480 552 40,000  Level Anchorage Center
08:01PM 58.2833 -158.6500 249° West 480 552 40,000  Level Anchorage Center
08:02PM 58.2333 -158.8833 248° West 480 552 40,000  Level Anchorage Center
08:03PM 58.1833 -159.1167 248° West 480 552 40,000  Level Anchorage Center
08:04PM 58.1333 -159.3500 248° West 480 552 40,000  Level Anchorage Center
08:05PM 58.0833 -159.5833 248° West 480 552 40,000  Level Anchorage Center
08:06PM 58.0333 -159.8167 248° West 470 541 40,000  Level Anchorage Center
08:07PM 57.9833 -160.0500 248° West 480 552 40,000  Level Anchorage Center
08:08PM 57.9500 -160.3000 256° West 470 541 40,000  Level Anchorage Center
08:09PM 57.9167 -160.5333 255° West 470 541 40,000  Level Anchorage Center
08:10PM 57.8667 -160.7667 248° West 460 529 40,000  Level Anchorage Center
08:11PM 57.8333 -161.0167 256° West 470 541 40,000  Level Anchorage Center
08:12PM 57.8000 -161.2500 255° West 470 541 40,000  Level Anchorage Center
08:13PM 57.7500 -161.5000 250° West 470 541 40,000  Level Anchorage Center
08:14PM 57.7167 -161.7333 255° West 470 541 40,000  Level Anchorage Center
08:15PM 57.6833 -161.9667 255° West 470 541 40,000  Level Anchorage Center
08:16PM 57.6333 -162.2000 248° West 470 541 40,000  Level Anchorage Center
08:17PM 57.6000 -162.4500 256° West 480 552 40,000  Level Anchorage Center
08:18PM 57.5500 -162.6833 248° West 470 541 40,000  Level Anchorage Center
08:19PM 57.5167 -162.9167 255° West 470 541 40,000  Level Anchorage Center
08:20PM 57.4667 -163.1500 248° West 470 541 40,000  Level Anchorage Center
08:21PM 57.4333 -163.3667 254° West 460 529 40,000  Level Anchorage Center
08:22PM 57.3833 -163.6000 248° West 470 541 40,000  Level Anchorage Center
08:23PM 57.3500 -163.8333 255° West 460 529 40,000  Level Anchorage Center
08:24PM 57.3000 -164.0667 248° West 470 541 40,000  Level Anchorage Center
08:25PM 57.2500 -164.3000 248° West 470 541 40,000  Level Anchorage Center
08:26PM 57.2167 -164.5333 255° West 470 541 40,000  Level Anchorage Center
08:27PM 57.1667 -164.7500 247° West 470 541 40,000  Level Anchorage Center
08:28PM 57.1167 -164.9833 249° West 480 552 40,000  Level Anchorage Center
08:29PM 57.0667 -165.2667 252° West 470 541 40,000  Level Anchorage Center
08:30PM 57.0167 -165.5167 250° West 460 529 40,000  Level Anchorage Center
08:31PM 56.9667 -165.7333 247° West 450 518 40,000  Level Anchorage Center
08:32PM 56.9167 -165.9667 249° West 480 552 40,000  Level Anchorage Center
08:33PM 56.8667 -166.2000 249° West 470 541 40,000  Level Anchorage Center
08:34PM 56.8333 -166.4167 254° West 460 529 40,000  Level Anchorage Center
08:35PM 56.7833 -166.6333 247° West 450 518 40,000  Level Anchorage Center
08:36PM 56.7333 -166.8500 247° West 470 541 40,000  Level Anchorage Center
08:37PM 56.6833 -167.0833 249° West 470 541 40,000  Level Anchorage Center
08:38PM 56.6333 -167.3000 247° West 460 529 40,000  Level Anchorage Center
08:39PM 56.5833 -167.5167 247° West 470 541 40,000  Level Anchorage Center
08:40PM 56.5333 -167.7500 249° West 460 529 40,000  Level Anchorage Center
08:41PM 56.4833 -167.9667 247° West 460 529 40,000  Level Anchorage Center
08:42PM 56.4333 -168.1833 247° West 470 541 40,000  Level Anchorage Center
08:43PM 56.3833 -168.4167 249° West 470 541 40,000  Level Anchorage Center
08:44PM 56.3333 -168.6333 247° West 480 552 40,000  Level Anchorage Center
08:45PM 56.2667 -168.8500 241° Southwest 470 541 40,000  Level Anchorage Center
08:46PM 56.2167 -169.0667 248° West 470 541 40,000  Level Anchorage Center
08:47PM 56.1667 -169.3000 249° West 480 552 40,000  Level Anchorage Center
08:48PM 56.1167 -169.5167 248° West 470 541 40,000  Level Anchorage Center
08:49PM 56.0667 -169.7000 244° Southwest 480 552 40,000  Level Anchorage Center
08:50PM 56.0167 -169.9167 248° West 480 552 40,000  Level Anchorage Center
08:51PM 55.9667 -170.1333 248° West 480 552 40,000  Level Anchorage Center
08:52PM 55.9333 -170.3667 256° West 460 529 40,000  Level Anchorage Center
08:53PM 55.9000 -170.5833 255° West 460 529 40,000  Level Anchorage Center
08:54PM 55.8667 -170.8167 256° West 470 541 40,000  Level Anchorage Center
08:55PM 55.8333 -171.0500 256° West 470 541 40,000  Level Anchorage Center
08:56PM 55.8000 -171.2667 255° West 470 541 40,000  Level Anchorage Center
08:57PM 55.7500 -171.5000 249° West 460 529 40,000  Level Anchorage Center
08:58PM 55.7167 -171.7167 255° West 470 541 40,000  Level Anchorage Center
08:59PM 55.6833 -171.9500 256° West 470 541 40,000  Level Anchorage Center
09:00PM 55.6500 -172.1667 255° West 470 541 40,000  Level Anchorage Center
09:01PM 55.6000 -172.3833 248° West 460 529 40,000  Level Anchorage Center
09:02PM 55.5667 -172.6167 256° West 470 541 40,000  Level Anchorage Center
09:03PM 55.5333 -172.8333 255° West 470 541 40,000  Level Anchorage Center
09:04PM 55.4833 -173.0500 248° West 470 541 40,000  Level Anchorage Center
09:05PM 55.4500 -173.2833 256° West 470 541 40,000  Level Anchorage Center
09:06PM 55.4000 -173.5000 248° West 470 541 40,000  Level Anchorage Center
09:07PM 55.3667 -173.7167 255° West 470 541 40,000  Level Anchorage Center
09:08PM 55.3167 -173.9333 248° West 470 541 40,000  Level Anchorage Center
09:09PM 55.2833 -174.1667 256° West 470 541 40,000  Level Anchorage Center
09:10PM 55.2333 -174.3833 248° West 470 541 40,000  Level Anchorage Center
09:11PM 55.2000 -174.6000 255° West 470 541 40,000  Level Anchorage Center
09:12PM 55.1500 -174.8167 248° West 480 552 40,000  Level Anchorage Center
09:13PM 55.1167 -175.0333 255° West 470 541 40,000  Level Anchorage Center
09:14PM 55.0667 -175.2667 250° West 470 541 40,000  Level Anchorage Center
09:16PM 54.9833 -175.7000 252° West 470 541 40,000  Level Anchorage Center
09:17PM 54.9333 -175.9167 248° West 470 541 40,000  Level Anchorage Center
09:18PM 54.9000 -176.0833 251° West 480 552 40,000  Level Anchorage Center
09:19PM 54.8333 -176.3500 247° West 470 541 40,000  Level Anchorage Center
09:25PM 54.5333 -177.7500 249° West 481 554 40,000  Level Anchorage Center
09:35PM 54.0667 -179.6833 255° West 480 552 40,000  Level Anchorage Center
09:36PM 54.0502 -179.7979 247° West 481 554 40,000  Level FlightAware Transoceanic
09:36PM 54.0167 -179.8500 243° Southwest 480 552 40,000  Level Anchorage Center
09:37PM 54.0000 -180.0000 256° West 481 554 40,000  Level FlightAware Transoceanic
09:37PM 53.9667 179.9000 251° West 470 541 40,000  Level Anchorage Center
09:38PM 53.9657 179.7732 255° West 481 554 40,000  Level FlightAware Transoceanic
09:38PM 53.9500 179.7000 262° West 480 552 40,000  Level Anchorage Center
09:39PM 53.9309 179.5467 255° West 481 554 40,000  Level FlightAware Transoceanic
09:39PM 53.9167 179.4667 256° West 470 541 40,000  Level Anchorage Center
09:40PM 53.8957 179.3207 255° West 481 554 40,000  Level FlightAware Transoceanic
09:40PM 53.8667 179.2167 251° West 480 552 40,000  Level Anchorage Center
09:41PM 53.8500 179.0333 261° West 480 552 40,000  Level Anchorage Center
09:42PM 53.8000 178.8000 250° West 480 552 40,000  Level Anchorage Center
09:43PM 53.7667 178.6000 254° West 480 552 40,000  Level Anchorage Center
09:44PM 53.7333 178.3667 257° West 480 552 40,000  Level Anchorage Center
09:45PM 53.7000 178.1833 253° West 480 552 40,000  Level Anchorage Center
09:46PM 53.6667 177.9333 257° West 480 552 40,000  Level Anchorage Center
09:47PM 53.6167 177.7000 250° West 480 552 40,000  Level Anchorage Center
09:48PM 53.6000 177.5167 261° West 480 552 40,000  Level Anchorage Center
09:49PM 53.5500 177.2833 250° West 480 552 40,000  Level Anchorage Center
09:50PM 53.5167 177.1000 253° West 470 541 40,000  Level Anchorage Center
09:51PM 53.4667 176.8500 252° West 480 552 40,000  Level Anchorage Center
09:52PM 53.4333 176.6667 253° West 480 552 40,000  Level Anchorage Center
09:53PM 53.4000 176.4333 257° West 480 552 40,000  Level Anchorage Center
09:54PM 53.3667 176.2500 253° West 480 552 40,000  Level Anchorage Center
09:55PM 53.3167 176.0167 250° West 480 552 40,000  Level Anchorage Center
09:56PM 53.2667 175.7833 250° West 480 552 40,000  Level Anchorage Center
09:57PM 53.2333 175.6000 253° West 480 552 40,000  Level Anchorage Center
09:58PM 53.2000 175.3667 257° West 480 552 40,000  Level Anchorage Center
09:59PM 53.1667 175.1833 253° West 480 552 40,000  Level Anchorage Center
10:00PM 53.1167 174.9667 249° West 470 541 40,000  Level Anchorage Center
10:01PM 53.0833 174.7833 253° West 480 552 40,000  Level Anchorage Center
10:02PM 53.0333 174.5500 250° West 470 541 40,000  Level Anchorage Center
10:03PM 52.9833 174.3333 249° West 480 552 40,000  Level Anchorage Center
10:04PM 52.9500 174.1500 253° West 480 552 40,000  Level Anchorage Center
10:05PM 52.9000 173.9167 251° West 490 564 40,000  Level Anchorage Center
10:06PM 52.8667 173.7500 252° West 480 552 40,000  Level Anchorage Center
10:07PM 52.8167 173.5167 251° West 480 552 40,000  Level Anchorage Center
10:08PM 52.7667 173.3000 249° West 470 541 40,000  Level Anchorage Center
10:09PM 52.7333 173.1167 253° West 480 552 40,000  Level Anchorage Center
10:10PM 52.6833 172.9000 249° West 470 541 40,000  Level Anchorage Center
10:11PM 52.6333 172.7167 246° West 470 541 40,000  Level Anchorage Center
10:12PM 52.5833 172.5000 249° West 480 552 40,000  Level Anchorage Center
10:13PM 52.5500 172.3333 252° West 470 541 40,000  Level Anchorage Center
10:14PM 52.5000 172.1000 251° West 470 541 40,000  Level Anchorage Center
10:15PM 52.4500 171.8833 249° West 490 564 40,000  Level Anchorage Center
10:16PM 52.4000 171.7000 246° West 480 552 40,000  Level Anchorage Center
10:17PM 52.3500 171.4833 249° West 470 541 40,000  Level Anchorage Center
10:18PM 52.3167 171.3167 252° West 480 552 40,000  Level Anchorage Center
10:19PM 52.2667 171.1000 249° West 480 552 40,000  Level Anchorage Center
10:20PM 52.2167 170.9167 246° West 480 552 40,000  Level Anchorage Center
10:21PM 52.1667 170.7000 249° West 480 552 40,000  Level Anchorage Center
10:22PM 52.1167 170.4833 249° West 470 541 40,000  Level Anchorage Center
10:23PM 52.0667 170.3167 244° Southwest 480 552 40,000  Level Anchorage Center
10:24PM 52.0167 170.1000 250° West 470 541 40,000  Level Anchorage Center
10:25PM 51.9667 169.9333 244° Southwest 470 541 40,000  Level Anchorage Center
10:26PM 51.9167 169.7167 250° West 470 541 40,000  Level Anchorage Center
10:27PM 51.8833 169.5500 252° West 480 552 40,000  Level Anchorage Center
10:28PM 51.8333 169.3333 250° West 470 541 40,000  Level Anchorage Center
10:29PM 51.7833 169.1667 244° Southwest 470 541 40,000  Level Anchorage Center
10:30PM 51.7333 168.9667 248° West 460 529 40,000  Level Anchorage Center
10:31PM 51.6833 168.7500 250° West 460 529 40,000  Level Anchorage Center
10:32PM 51.6333 168.5833 244° Southwest 460 529 40,000  Level Anchorage Center
10:33PM 51.5833 168.3833 248° West 480 552 40,000  Level Anchorage Center
10:34PM 51.5333 168.2167 244° Southwest 460 529 40,000  Level Anchorage Center
10:35PM 51.4833 168.0000 250° West 480 552 40,000  Level Anchorage Center
10:42PM 51.1000 166.5667 246° West 458 527 40,000  Level Anchorage Center
10:52PM 50.6000 164.8167 245° Southwest 446 513 40,000  Level Anchorage Center
11:02PM 50.1000 163.2000 243° Southwest 443 510 40,000  Level Anchorage Center
11:11PM 49.5500 161.6000 243° Southwest 446 513 40,000  Level Anchorage Center
11:12PM 49.5319 161.5067 242° Southwest 443 510 40,000  Level FlightAware Transoceanic
11:13PM 49.4738 161.3395 242° Southwest 443 510 40,000  Level FlightAware Transoceanic
11:14PM 49.4154 161.1728 242° Southwest 443 510 40,000  Level FlightAware Transoceanic
11:15PM 49.3568 161.0064 242° Southwest 443 510 40,000  Level FlightAware Transoceanic
11:16PM 49.2979 160.8405 241° Southwest 443 510 40,000  Level FlightAware Transoceanic
11:17PM 49.2388 160.6749 241° Southwest 443 510 40,000  Level FlightAware Transoceanic
11:18PM 49.1857 160.5405 242° Southwest 446 513 40,000  Level FlightAware Transoceanic
11:19PM 49.1241 160.3655 242° Southwest 446 513 40,000  Level FlightAware Transoceanic
11:20PM 49.0622 160.1909 242° Southwest 446 513 40,000  Level FlightAware Transoceanic
11:21PM 49.0000 160.0167 233° Southwest 446 513 40,000  Level FlightAware Transoceanic
11:22PM 48.9285 159.8707 233° Southwest 446 513 40,000  Level FlightAware Transoceanic
11:23PM 48.8567 159.7252 233° Southwest 446 513 40,000  Level FlightAware Transoceanic
11:24PM 48.7848 159.5801 233° Southwest 446 513 40,000  Level FlightAware Transoceanic
11:25PM 48.7127 159.4354 233° Southwest 446 513 40,000  Level FlightAware Transoceanic
11:26PM 48.6405 159.2911 233° Southwest 446 513 40,000  Level FlightAware Transoceanic
11:27PM 48.5680 159.1472 233° Southwest 446 513 40,000  Level FlightAware Transoceanic
11:28PM 48.4954 159.0037 233° Southwest 446 513 40,000  Level FlightAware Transoceanic
11:29PM 48.4226 158.8607 232° Southwest 446 513 40,000  Level FlightAware Transoceanic
11:30PM 48.3496 158.7180 232° Southwest 446 513 40,000  Level FlightAware Transoceanic
11:31PM 48.2764 158.5758 232° Southwest 446 513 40,000  Level FlightAware Transoceanic
11:32PM 48.2031 158.4340 232° Southwest 446 513 40,000  Level FlightAware Transoceanic
11:33PM 48.1296 158.2926 232° Southwest 446 513 40,000  Level FlightAware Transoceanic
11:34PM 48.0559 158.1516 232° Southwest 446 513 40,000  Level FlightAware Transoceanic
11:35PM 47.9821 158.0109 232° Southwest 446 513 40,000  Level FlightAware Transoceanic
11:36PM 47.9080 157.8707 232° Southwest 446 513 40,000  Level FlightAware Transoceanic
11:37PM 47.8339 157.7309 232° Southwest 446 513 40,000  Level FlightAware Transoceanic
11:38PM 47.7595 157.5915 231° Southwest 446 513 40,000  Level FlightAware Transoceanic
11:39PM 47.6850 157.4525 231° Southwest 446 513 40,000  Level FlightAware Transoceanic
11:40PM 47.6102 157.3139 231° Southwest 446 513 40,000  Level FlightAware Transoceanic
11:41PM 47.5354 157.1757 231° Southwest 446 513 40,000  Level FlightAware Transoceanic
11:42PM 47.4604 157.0379 231° Southwest 446 513 40,000  Level FlightAware Transoceanic
11:43PM 47.3852 156.9004 231° Southwest 446 513 40,000  Level FlightAware Transoceanic
11:44PM 47.3098 156.7634 231° Southwest 446 513 40,000  Level FlightAware Transoceanic
11:45PM 47.2343 156.6267 231° Southwest 446 513 40,000  Level FlightAware Transoceanic
11:46PM 47.1586 156.4905 231° Southwest 446 513 40,000  Level FlightAware Transoceanic
11:47PM 47.0827 156.3546 231° Southwest 446 513 40,000  Level FlightAware Transoceanic
11:48PM 47.0067 156.2191 230° Southwest 446 513 40,000  Level FlightAware Transoceanic
11:49PM 46.9306 156.0840 230° Southwest 446 513 40,000  Level FlightAware Transoceanic
11:50PM 46.8543 155.9493 230° Southwest 446 513 40,000  Level FlightAware Transoceanic
11:51PM 46.7778 155.8150 230° Southwest 446 513 40,000  Level FlightAware Transoceanic
11:52PM 46.7011 155.6810 230° Southwest 446 513 40,000  Level FlightAware Transoceanic
11:53PM 46.6243 155.5475 230° Southwest 446 513 40,000  Level FlightAware Transoceanic
11:54PM 46.5474 155.4143 230° Southwest 446 513 40,000  Level FlightAware Transoceanic
11:55PM 46.4703 155.2815 230° Southwest 446 513 40,000  Level FlightAware Transoceanic
11:56PM 46.3930 155.1490 230° Southwest 446 513 40,000  Level FlightAware Transoceanic
11:57PM 46.3156 155.0170 230° Southwest 446 513 40,000  Level FlightAware Transoceanic
11:58PM 46.2381 154.8853 230° Southwest 446 513 40,000  Level FlightAware Transoceanic
11:59PM 46.1604 154.7540 229° Southwest 446 513 40,000  Level FlightAware Transoceanic
12:00AM 46.0825 154.6230 229° Southwest 446 513 40,000  Level FlightAware Transoceanic
12:01AM 46.0045 154.4924 229° Southwest 446 513 40,000  Level FlightAware Transoceanic
12:02AM 45.9263 154.3622 229° Southwest 446 513 40,000  Level FlightAware Transoceanic
12:03AM 45.8480 154.2324 229° Southwest 446 513 40,000  Level FlightAware Transoceanic
12:04AM 45.7696 154.1029 229° Southwest 446 513 40,000  Level FlightAware Transoceanic
12:05AM 45.6910 153.9738 229° Southwest 446 513 40,000  Level FlightAware Transoceanic
12:06AM 45.6122 153.8450 229° Southwest 446 513 40,000 -179 Level FlightAware Transoceanic
12:07AM 45.5196 153.7205 223° Southwest  Level FlightAware Approximate
12:08AM 45.5140 153.7122 229° Southwest  Level FlightAware Approximate
12:09AM 45.4304 153.5758 229° Southwest  Level FlightAware Approximate
12:10AM 45.3467 153.4397 229° Southwest  Level FlightAware Approximate
12:11AM 45.2628 153.3040 229° Southwest  Level FlightAware Approximate
12:12AM 45.1787 153.1688 229° Southwest  Level FlightAware Approximate
12:13AM 45.0945 153.0339 229° Southwest  Level FlightAware Approximate
12:14AM 45.0102 152.8995 228° Southwest  Level FlightAware Approximate
12:15AM 44.9247 152.7666 228° Southwest  Level FlightAware Approximate
12:16AM 44.8390 152.6342 228° Southwest  Level FlightAware Approximate
12:17AM 44.7531 152.5023 228° Southwest  Level FlightAware Approximate
12:18AM 44.6671 152.3707 227° Southwest  Level FlightAware Approximate
12:19AM 44.5809 152.2396 227° Southwest  Level FlightAware Approximate
12:20AM 44.4946 152.1088 227° Southwest  Level FlightAware Approximate
12:21AM 44.4084 151.9781 227° Southwest  Level FlightAware Approximate
12:22AM 44.3221 151.8476 227° Southwest  Level FlightAware Approximate
12:23AM 44.2357 151.7175 227° Southwest  Level FlightAware Approximate
12:24AM 44.1492 151.5877 227° Southwest  Level FlightAware Approximate
12:25AM 44.0625 151.4584 227° Southwest  Level FlightAware Approximate
12:26AM 43.9757 151.3294 227° Southwest  Level FlightAware Approximate
12:27AM 43.8885 151.2011 227° Southwest  Level FlightAware Approximate
12:28AM 43.8009 151.0735 226° Southwest  Level FlightAware Approximate
12:29AM 43.7132 150.9462 226° Southwest  Level FlightAware Approximate
12:30AM 43.6254 150.8193 226° Southwest  Level FlightAware Approximate
12:31AM 43.5374 150.6928 226° Southwest  Level FlightAware Approximate
12:32AM 43.4492 150.5667 226° Southwest  Level FlightAware Approximate
12:33AM 43.3610 150.4409 226° Southwest  Level FlightAware Approximate
12:34AM 43.2726 150.3155 226° Southwest  Level FlightAware Approximate
12:35AM 43.1840 150.1904 226° Southwest  Level FlightAware Approximate
12:36AM 43.0954 150.0657 226° Southwest  Level FlightAware Approximate
12:37AM 43.0065 149.9414 226° Southwest  Level FlightAware Approximate
12:38AM 42.9176 149.8174 226° Southwest  Level FlightAware Approximate
12:39AM 42.8285 149.6938 226° Southwest  Level FlightAware Approximate
12:40AM 42.7393 149.5706 225° Southwest  Level FlightAware Approximate
12:41AM 42.6500 149.4477 225° Southwest  Level FlightAware Approximate
12:42AM 42.5605 149.3251 225° Southwest  Level FlightAware Approximate
12:43AM 42.4709 149.2029 225° Southwest  Level FlightAware Approximate
12:44AM 42.3811 149.0811 225° Southwest  Level FlightAware Approximate
12:45AM 42.2913 148.9596 225° Southwest  Level FlightAware Approximate
12:46AM 42.2013 148.8385 225° Southwest  Level FlightAware Approximate
12:47AM 42.1112 148.7177 225° Southwest  Level FlightAware Approximate
12:48AM 42.0209 148.5972 225° Southwest  Level FlightAware Approximate
12:49AM 41.9306 148.4771 225° Southwest  Level FlightAware Approximate
12:50AM 41.8401 148.3573 225° Southwest  Level FlightAware Approximate
12:51AM 41.7494 148.2379 225° Southwest  Level FlightAware Approximate
12:52AM 41.6582 148.1195 224° Southwest  Level FlightAware Approximate
12:53AM 41.5666 148.0016 224° Southwest  Level FlightAware Approximate
12:54AM 41.4750 147.8841 224° Southwest  Level FlightAware Approximate
12:55AM 41.3833 147.7669 224° Southwest  Level FlightAware Approximate
12:56AM 41.2914 147.6500 224° Southwest  Level FlightAware Approximate
12:57AM 41.1994 147.5335 224° Southwest  Level FlightAware Approximate
12:58AM 41.1073 147.4173 224° Southwest  Level FlightAware Approximate
12:59AM 41.0150 147.3014 223° Southwest  Level FlightAware Approximate
01:00AM 40.9227 147.1858 223° Southwest  Level FlightAware Approximate
01:01AM 40.8302 147.0706 223° Southwest  Level FlightAware Approximate
01:02AM 40.7377 146.9557 223° Southwest  Level FlightAware Approximate
01:03AM 40.6450 146.8411 223° Southwest  Level FlightAware Approximate
01:04AM 40.5522 146.7268 223° Southwest  Level FlightAware Approximate
01:05AM 40.4593 146.6128 223° Southwest  Level FlightAware Approximate
01:06AM 40.3662 146.4992 223° Southwest  Level FlightAware Approximate
01:07AM 40.2731 146.3858 223° Southwest  Level FlightAware Approximate
01:08AM 40.1799 146.2728 223° Southwest  Level FlightAware Approximate
01:09AM 40.0865 146.1601 223° Southwest  Level FlightAware Approximate
01:10AM 39.9930 146.0477 223° Southwest  Level FlightAware Approximate
01:11AM 39.8995 145.9356 223° Southwest  Level FlightAware Approximate
01:12AM 39.8058 145.8238 223° Southwest  Level FlightAware Approximate
01:13AM 39.7120 145.7123 222° Southwest  Level FlightAware Approximate
01:14AM 39.6181 145.6011 222° Southwest  Level FlightAware Approximate
01:15AM 39.5241 145.4902 222° Southwest  Level FlightAware Approximate
01:16AM 39.4300 145.3797 222° Southwest  Level FlightAware Approximate
01:17AM 39.3358 145.2694 222° Southwest  Level FlightAware Approximate
01:18AM 39.2415 145.1594 222° Southwest  Level FlightAware Approximate
01:19AM 39.1471 145.0497 222° Southwest  Level FlightAware Approximate
01:20AM 39.0525 144.9403 222° Southwest  Level FlightAware Approximate
01:21AM 38.9579 144.8312 222° Southwest  Level FlightAware Approximate
01:22AM 38.8632 144.7224 222° Southwest  Level FlightAware Approximate
01:23AM 38.7683 144.6140 222° Southwest  Level FlightAware Approximate
01:24AM 38.6732 144.5060 222° Southwest  Level FlightAware Approximate
01:25AM 38.5780 144.3983 221° Southwest  Level FlightAware Approximate
01:26AM 38.4826 144.2910 221° Southwest  Level FlightAware Approximate
01:27AM 38.3872 144.1839 221° Southwest  Level FlightAware Approximate
01:28AM 38.2917 144.0771 221° Southwest  Level FlightAware Approximate
01:29AM 38.1961 143.9706 221° Southwest  Level FlightAware Approximate
01:30AM 38.1004 143.8643 221° Southwest  Level FlightAware Approximate
01:31AM 38.0046 143.7583 221° Southwest  Level FlightAware Approximate
01:32AM 37.9087 143.6527 221° Southwest  Level FlightAware Approximate
01:33AM 37.8127 143.5472 221° Southwest  Level FlightAware Approximate
01:34AM 37.7069 143.4585 212° Southwest  Level FlightAware Approximate
01:35AM 37.5997 143.3726 212° Southwest  Level FlightAware Approximate
01:36AM 37.4923 143.2869 212° Southwest  Level FlightAware Approximate
01:37AM 37.3849 143.2014 212° Southwest  Level FlightAware Approximate
01:38AM 37.2772 143.1161 212° Southwest  Level FlightAware Approximate
01:39AM 37.1696 143.0310 212° Southwest  Level FlightAware Approximate
01:40AM 37.0618 142.9461 213° Southwest  Level FlightAware Approximate
01:41AM 36.9547 142.8601 213° Southwest  Level FlightAware Approximate
01:42AM 36.8475 142.7744 213° Southwest  Level FlightAware Approximate
01:43AM 36.7403 142.6889 213° Southwest  Level FlightAware Approximate
01:44AM 36.6321 142.6053 212° Southwest  Level FlightAware Approximate
01:45AM 36.5238 142.5222 212° Southwest  Level FlightAware Approximate
01:46AM 36.4128 142.4462 219° Southwest  Level FlightAware Approximate
01:47AM 36.3045 142.3638 210° Southwest  Level FlightAware Approximate
01:48AM 36.1947 142.2840 210° Southwest  Level FlightAware Approximate
01:49AM 36.0852 142.2043 210° Southwest  Level FlightAware Approximate
01:50AM 36.0217 142.0851 260° West  Level FlightAware Approximate
01:51AM 35.9864 141.9345 252° West  Level FlightAware Approximate
01:52AM 35.9471 141.7853 252° West  Level FlightAware Approximate
01:53AM 35.9089 141.6356 253° West  Level FlightAware Approximate
01:54AM 35.8921 141.4808 265° West  Level FlightAware Approximate
01:54AM 35.9292 142.1786 209° Southwest 408 470 20,500  Level FlightAware ADS-B
01:55AM 35.8673 142.0281 269° West 396 456 18,900 -1,152 Descending FlightAware ADS-B
01:56AM 35.8660 141.9273 269° West 392 451 18,100 -1,140 Descending FlightAware ADS-B
01:57AM 35.8646 141.8051 269° West 388 447 17,000 -1,119 Descending FlightAware ADS-B
01:59AM 35.8612 141.5433 269° West 371 427 14,800 -1,091 Descending FlightAware ADS-B
01:59AM 35.8604 141.4750 270° West 365 420 14,200 -1,000 Descending FlightAware ADS-B
02:00AM 35.8627 141.3800 270° West 365 420 13,500 -1,200 Descending FlightAware ADS-B
02:01AM 35.8656 141.2676 271° West 331 381 12,100 -1,545 Descending FlightAware ADS-B
02:02AM 35.8679 141.1887 270° West 328 377 10,900 -1,260 Descending FlightAware ADS-B
02:03AM 35.8700 141.0841 270° West 301 346 10,000 -909 Descending FlightAware ADS-B
02:03AM 35.8711 141.0172 271° West 288 331 9,400 -1,037 Descending FlightAware ADS-B
02:04AM 35.8726 140.9517 270° West 286 329 8,600 -1,108 Descending FlightAware ADS-B
02:04AM 35.8739 140.9109 271° West 277 319 8,200 -960 Descending FlightAware ADS-B
02:05AM 35.8804 140.8342 280° West 269 310 7,400 -984 Descending FlightAware ADS-B
02:06AM 35.8875 140.7937 282° West 274 315 6,100 -586 Descending FlightAware ADS-B
02:07AM 35.9135 140.6472 283° West 275 316 6,100  Level FlightAware ADS-B
02:08AM 35.9191 140.6164 283° West 275 316 6,100  Level FlightAware ADS-B
02:08AM 35.9232 140.5935 282° West 274 315 6,100  Level FlightAware ADS-B
02:08AM 35.9267 140.5740 283° West 273 314 6,100  Level FlightAware ADS-B
02:09AM 35.9353 140.5259 283° West 273 314 6,100 -273 Level FlightAware ADS-B
02:09AM 35.9395 140.5027 282° West 273 314 5,900 -1,130 Descending FlightAware ADS-B
02:10AM 35.9503 140.4413 281° West 275 316 4,800 -1,154 Descending FlightAware ADS-B
02:10AM 35.9606 140.3671 274° West 258 297 4,400 -955 Descending FlightAware ADS-B
02:11AM 35.9584 140.3385 266° West 240 276 4,100 -706 Descending FlightAware ADS-B
02:11AM 35.9565 140.3206 253° West 222 255 4,000 -900 Descending FlightAware ADS-B
02:11AM 35.9446 140.2925 236° Southwest 205 236 3,500 -729 Descending FlightAware ADS-B
02:13AM 35.8934 140.2818 147° Southeast 187 215 2,700 -699 Descending FlightAware ADS-B
02:13AM 35.8747 140.2959 150° Southeast 186 214 2,300 -1,083 Descending FlightAware ADS-B
02:14AM 35.8326 140.3262 150° Southeast 183 211 1,400 -1,080 Descending FlightAware ADS-B
02:16AM 35.7647 140.3864 253° West  Level Estimated
02:17AM 35.7647 140.3864 253° West  Level Estimated
02:18AM 35.7647 140.3864 253° West  Level Estimated
02:19AM 35.7647 140.3864 253° West  Level Estimated

Login

Don't have an account? Register now (free) for customized features, flight alerts, and more!